Time;durP1;ratioP1;P1;durP2;ratioP2;P2;SDS_P1;SDS_P2;PMS_P1;PMS_P2;Temp;Humidity;BMP_temperature;BMP_pressure;BME280_temperature;BME280_humidity;BME280_pressure;Samples;Min_cycle;Max_cycle;Signal;HPM_P1;HPM_P2
2023/08/22 00:00:34;;;;;;;11.00;8.50;;;;;;;20.91;96.37;98395.47;107280;1275;23245;-82
2023/08/22 00:03:22;;;;;;;9.50;8.50;;;;;;;20.85;96.37;98397.61;107292;1275;22560;-82
2023/08/22 00:05:50;;;;;;;10.10;8.90;;;;;;;20.82;96.53;98402.23;107248;1267;22566;-82
2023/08/22 00:08:18;;;;;;;10.30;8.30;;;;;;;20.80;97.30;98400.60;107105;1274;22607;-83
2023/08/22 00:10:46;;;;;;;9.90;8.80;;;;;;;20.73;97.21;98395.65;107310;1272;25328;-82
2023/08/22 00:13:15;;;;;;;9.50;8.60;;;;;;;20.69;97.17;98391.18;107463;1274;22578;-78
2023/08/22 00:15:43;;;;;;;10.50;9.30;;;;;;;20.66;97.29;98388.20;107400;1275;25278;-79
2023/08/22 00:18:11;;;;;;;10.00;8.90;;;;;;;20.61;97.27;98385.05;107384;1275;22536;-80
2023/08/22 00:20:39;;;;;;;10.30;9.40;;;;;;;20.57;97.75;98381.80;107431;1272;25120;-78
2023/08/22 00:23:08;;;;;;;10.50;9.50;;;;;;;20.52;98.22;98382.77;107408;1275;25417;-76
2023/08/22 00:25:36;;;;;;;11.60;10.20;;;;;;;20.42;98.85;98377.27;107368;1272;24260;-76
2023/08/22 00:28:04;;;;;;;9.70;8.90;;;;;;;20.33;98.66;98378.44;106754;1275;205955;-77
2023/08/22 00:30:32;;;;;;;12.80;9.40;;;;;;;20.25;98.71;98374.87;106934;1275;23352;-78
2023/08/22 00:33:00;;;;;;;10.40;9.40;;;;;;;20.25;99.03;98374.14;106939;1275;22548;-77
2023/08/22 00:35:28;;;;;;;9.90;8.90;;;;;;;20.20;99.55;98376.84;106944;1275;23251;-77
2023/08/22 00:37:56;;;;;;;14.30;9.90;;;;;;;20.10;99.84;98377.52;107018;1275;24250;-77
2023/08/22 00:40:24;;;;;;;10.40;9.40;;;;;;;20.10;99.94;98370.86;106980;1275;22679;-76
2023/08/22 00:42:52;;;;;;;11.40;9.60;;;;;;;20.12;99.84;98373.43;106696;1275;24248;-77
2023/08/22 00:45:20;;;;;;;10.70;9.60;;;;;;;20.10;100.00;98371.66;106955;1275;22546;-77
2023/08/22 00:47:48;;;;;;;11.00;9.90;;;;;;;20.03;100.00;98372.31;106655;1275;22583;-76
2023/08/22 00:50:16;;;;;;;10.70;9.70;;;;;;;19.89;100.00;98375.23;106982;1275;22529;-77
2023/08/22 00:52:45;;;;;;;10.80;9.80;;;;;;;19.77;100.00;98374.66;106981;1275;22601;-77
2023/08/22 00:55:13;;;;;;;11.60;9.40;;;;;;;19.70;100.00;98375.33;106716;1275;23281;-77
2023/08/22 00:57:42;;;;;;;9.90;8.90;;;;;;;19.69;100.00;98378.11;106856;1275;25394;-77
2023/08/22 01:00:11;;;;;;;10.20;9.20;;;;;;;19.78;100.00;98377.27;107085;1275;25234;-76
2023/08/22 01:02:39;;;;;;;10.40;8.80;;;;;;;19.83;100.00;98372.72;106826;1275;23900;-77
2023/08/22 01:05:09;;;;;;;10.00;9.00;;;;;;;19.86;100.00;98369.21;106961;1275;22512;-75
2023/08/22 01:07:45;;;;;;;10.90;9.30;;;;;;;19.78;100.00;98367.59;107027;1275;22525;-78
2023/08/22 01:10:21;;;;;;;9.90;8.90;;;;;;;19.65;100.00;98364.15;106750;1275;24222;-76
2023/08/22 01:12:57;;;;;;;11.10;8.90;;;;;;;19.53;100.00;98361.60;106669;1275;23958;-76
2023/08/22 01:15:27;;;;;;;9.60;8.40;;;;;;;19.46;100.00;98359.15;106960;1275;25329;-76
2023/08/22 01:18:01;;;;;;;8.80;7.90;;;;;;;19.46;100.00;98361.86;106959;1275;22533;-76
2023/08/22 01:20:30;;;;;;;8.70;7.90;;;;;;;19.48;100.00;98350.69;107109;1275;22736;-77
2023/08/22 01:22:58;;;;;;;8.60;7.70;;;;;;;19.50;100.00;98350.50;106898;1275;22634;-76
2023/08/22 01:25:28;;;;;;;9.40;8.30;;;;;;;19.55;100.00;98346.58;106792;1275;23891;-77
2023/08/22 01:28:04;;;;;;;10.60;8.10;;;;;;;19.65;100.00;98343.77;106967;1275;25237;-77
2023/08/22 01:30:48;;;;;;;9.20;8.10;;;;;;;19.68;100.00;98347.54;106905;1275;22527;-77
2023/08/22 01:33:25;;;;;;;9.30;8.40;;;;;;;19.51;100.00;98349.20;107050;1263;22934;-77
2023/08/22 01:35:55;;;;;;;11.00;8.00;;;;;;;19.33;100.00;98355.02;107357;1275;22546;-78
2023/08/22 01:38:28;;;;;;;10.50;8.50;;;;;;;19.25;100.00;98359.62;106652;1275;22551;-79
2023/08/22 01:40:57;;;;;;;11.00;8.00;;;;;;;19.35;100.00;98354.50;106863;1275;22744;-79
2023/08/22 01:43:26;;;;;;;11.40;7.60;;;;;;;19.49;100.00;98346.50;106945;1275;22528;-79
2023/08/22 01:45:53;;;;;;;9.00;7.50;;;;;;;19.59;100.00;98344.02;106728;1275;22686;-78
2023/08/22 01:48:21;;;;;;;8.10;6.80;;;;;;;19.60;100.00;98347.80;106771;1275;22604;-79
2023/08/22 01:50:50;;;;;;;8.30;7.40;;;;;;;19.57;100.00;98354.29;106985;1275;22518;-79
2023/08/22 01:53:18;;;;;;;9.10;6.80;;;;;;;19.48;100.00;98352.42;107378;1275;22547;-79
2023/08/22 01:55:46;;;;;;;7.90;7.10;;;;;;;19.39;100.00;98356.84;107331;1275;25454;-78
2023/08/22 01:58:14;;;;;;;9.30;6.70;;;;;;;19.29;100.00;98359.58;106988;1275;24331;-77
2023/08/22 02:00:42;;;;;;;9.10;7.00;;;;;;;19.22;100.00;98356.86;106677;1275;22591;-77
2023/08/22 02:03:10;;;;;;;7.90;6.50;;;;;;;19.16;100.00;98357.48;106968;1275;24438;-77
2023/08/22 02:05:38;;;;;;;8.30;6.40;;;;;;;19.16;100.00;98360.34;106924;1275;24240;-77
2023/08/22 02:08:06;;;;;;;7.90;5.90;;;;;;;19.30;100.00;98356.95;107377;1275;22553;-76
2023/08/22 02:10:35;;;;;;;7.30;6.00;;;;;;;19.59;100.00;98349.21;107296;1275;25502;-76
2023/08/22 02:13:03;;;;;;;7.00;6.20;;;;;;;19.92;100.00;98348.56;106950;1275;25425;-76
2023/08/22 02:15:31;;;;;;;8.00;6.80;;;;;;;20.15;100.00;98343.64;106728;1267;22633;-78
2023/08/22 02:17:59;;;;;;;10.30;6.90;;;;;;;20.18;100.00;98346.07;106957;1275;25306;-78
2023/08/22 02:20:27;;;;;;;8.90;7.10;;;;;;;20.10;100.00;98348.83;107279;1275;22644;-76
2023/08/22 02:22:58;;;;;;;8.10;6.30;;;;;;;19.94;100.00;98350.68;107399;1262;22794;-78
2023/08/22 02:25:26;;;;;;;8.80;5.70;;;;;;;19.81;100.00;98352.80;107404;1275;24347;-78
2023/08/22 02:27:55;;;;;;;7.30;6.40;;;;;;;19.77;100.00;98352.17;107330;1275;22569;-76
2023/08/22 02:30:23;;;;;;;9.60;5.70;;;;;;;19.69;100.00;98347.16;107315;1275;23416;-78
2023/08/22 02:32:51;;;;;;;7.30;4.70;;;;;;;19.57;100.00;98351.48;106960;1275;24246;-77
2023/08/22 02:35:19;;;;;;;6.80;5.30;;;;;;;19.66;100.00;98348.64;106912;1275;22788;-77
2023/08/22 02:37:49;;;;;;;6.10;5.50;;;;;;;19.92;100.00;98344.67;106801;1275;22646;-77
2023/08/22 02:40:17;;;;;;;6.70;5.70;;;;;;;19.94;100.00;98342.46;106971;1275;22541;-77
2023/08/22 02:42:45;;;;;;;6.10;5.20;;;;;;;19.84;99.96;98340.33;106976;1275;22635;-78
2023/08/22 02:45:13;;;;;;;7.50;5.60;;;;;;;19.81;99.91;98344.28;107261;1275;24369;-77
2023/08/22 02:47:42;;;;;;;8.10;5.10;;;;;;;19.81;99.98;98348.11;107224;1275;22619;-78
2023/08/22 02:50:10;;;;;;;6.10;4.90;;;;;;;19.98;100.00;98345.32;107044;1275;24203;-77
2023/08/22 02:52:38;;;;;;;6.80;5.80;;;;;;;20.00;99.37;98350.35;106978;1275;24266;-76
2023/08/22 02:55:07;;;;;;;7.70;5.60;;;;;;;19.78;98.59;98357.90;106953;1275;24103;-77
2023/08/22 02:57:35;;;;;;;7.80;5.30;;;;;;;19.57;98.53;98357.65;106990;1275;24356;-77
2023/08/22 03:00:05;;;;;;;8.20;5.30;;;;;;;19.50;99.71;98356.67;107237;1275;23906;-77
2023/08/22 03:02:33;;;;;;;6.60;5.00;;;;;;;19.67;100.00;98350.21;107245;1275;25061;-77
2023/08/22 03:05:04;;;;;;;8.20;5.00;;;;;;;19.77;99.60;98352.70;107277;1275;22542;-77
2023/08/22 03:07:34;;;;;;;8.60;5.70;;;;;;;19.66;98.25;98350.35;107233;1275;24075;-77
2023/08/22 03:10:02;;;;;;;7.20;5.20;;;;;;;19.48;98.13;98347.65;107070;1275;24236;-76
2023/08/22 03:12:30;;;;;;;6.70;5.40;;;;;;;19.38;98.34;98346.31;106939;1275;22640;-76
2023/08/22 03:14:59;;;;;;;8.10;5.30;;;;;;;19.35;98.52;98346.79;106665;1275;22774;-78
2023/08/22 03:17:27;;;;;;;6.40;4.90;;;;;;;19.35;98.27;98348.81;107231;1269;22667;-79
2023/08/22 03:19:55;;;;;;;8.60;5.50;;;;;;;19.32;98.38;98349.34;107006;1275;24735;-77
2023/08/22 03:22:24;;;;;;;8.50;5.70;;;;;;;19.35;98.53;98346.08;106854;1275;25388;-78
2023/08/22 03:24:52;;;;;;;7.70;5.20;;;;;;;19.31;97.96;98342.08;107316;1275;22585;-78
2023/08/22 03:27:21;;;;;;;7.60;5.10;;;;;;;19.30;97.92;98345.39;107319;1268;22532;-77
2023/08/22 03:29:49;;;;;;;7.30;4.80;;;;;;;19.24;97.85;98342.73;107216;1273;24302;-77
2023/08/22 03:32:18;;;;;;;8.80;5.00;;;;;;;19.18;97.61;98343.95;107161;1270;24350;-78
2023/08/22 03:34:46;;;;;;;9.80;6.50;;;;;;;19.15;98.02;98346.73;107321;1275;22528;-78
2023/08/22 03:37:14;;;;;;;8.10;5.70;;;;;;;19.23;99.24;98338.86;107401;1272;22680;-78
2023/08/22 03:39:42;;;;;;;7.70;5.20;;;;;;;19.28;97.83;98340.80;107349;1268;22551;-76
2023/08/22 03:42:10;;;;;;;7.90;5.50;;;;;;;19.22;97.54;98337.12;107096;1270;24381;-77
2023/08/22 03:44:38;;;;;;;7.20;4.60;;;;;;;19.15;97.43;98341.66;107146;1275;22576;-77
2023/08/22 03:47:06;;;;;;;8.30;4.80;;;;;;;19.05;97.47;98345.42;106798;1270;22644;-76
2023/08/22 03:49:38;;;;;;;9.30;5.80;;;;;;;18.94;97.34;98344.17;106984;1275;22531;-76
2023/08/22 03:52:07;;;;;;;7.50;5.50;;;;;;;18.83;97.37;98347.48;106970;1275;24188;-77
2023/08/22 03:54:35;;;;;;;7.50;5.40;;;;;;;18.77;97.69;98344.95;107176;1275;23188;-77
2023/08/22 03:57:03;;;;;;;7.80;4.80;;;;;;;18.73;97.40;98345.29;106782;1275;25498;-77
2023/08/22 03:59:31;;;;;;;7.60;5.00;;;;;;;18.68;97.48;98346.36;106681;1275;22522;-77
2023/08/22 04:01:59;;;;;;;6.40;5.00;;;;;;;18.68;97.55;98342.54;107037;1275;25394;-78
2023/08/22 04:04:28;;;;;;;7.30;4.70;;;;;;;18.74;97.79;98342.80;107282;1275;22531;-77
2023/08/22 04:06:56;;;;;;;6.30;4.50;;;;;;;18.82;97.66;98344.80;106957;1275;22668;-78
2023/08/22 04:09:25;;;;;;;7.90;5.20;;;;;;;18.89;97.57;98338.69;107318;1275;24967;-77
2023/08/22 04:11:53;;;;;;;6.10;5.10;;;;;;;18.90;97.26;98337.01;107377;1275;25393;-77
2023/08/22 04:14:21;;;;;;;6.40;5.10;;;;;;;18.89;97.28;98333.55;107335;1275;26619;-77
2023/08/22 04:16:49;;;;;;;5.60;4.70;;;;;;;18.87;97.16;98334.02;106936;1275;24216;-77
2023/08/22 04:19:17;;;;;;;6.40;5.10;;;;;;;18.84;97.22;98330.73;106936;1275;23901;-76
2023/08/22 04:21:46;;;;;;;5.10;4.40;;;;;;;18.80;97.28;98330.85;107218;1263;22532;-78
2023/08/22 04:24:14;;;;;;;7.80;5.30;;;;;;;18.78;97.37;98333.60;107489;1275;22525;-77
2023/08/22 04:26:43;;;;;;;6.70;4.50;;;;;;;18.73;97.19;98333.95;107415;1275;22557;-78
2023/08/22 04:29:11;;;;;;;6.70;4.80;;;;;;;18.67;97.23;98331.33;107333;1275;24195;-78
2023/08/22 04:31:39;;;;;;;9.50;4.90;;;;;;;18.69;97.37;98331.32;107217;1264;22639;-78
2023/08/22 04:34:08;;;;;;;11.30;5.50;;;;;;;18.72;97.79;98332.92;107226;1275;22545;-78
2023/08/22 04:36:45;;;;;;;6.50;4.50;;;;;;;18.90;98.85;98335.60;107503;1275;22529;-78
2023/08/22 04:39:13;;;;;;;9.80;4.30;;;;;;;19.10;98.12;98335.81;107203;1275;22573;-81
2023/08/22 04:41:44;;;;;;;9.00;4.80;;;;;;;19.12;97.21;98334.87;107445;1275;22566;-81
2023/08/22 04:44:25;;;;;;;5.50;4.40;;;;;;;19.11;97.01;98330.06;107394;1275;26106;-81
2023/08/22 04:46:53;;;;;;;9.90;5.10;;;;;;;19.10;97.00;98329.11;107071;1275;22532;-79
2023/08/22 04:49:21;;;;;;;14.90;6.40;;;;;;;19.17;97.27;98329.64;106983;1275;23911;-78
2023/08/22 04:51:49;;;;;;;16.90;6.50;;;;;;;19.26;97.04;98326.56;106861;1258;22660;-79
2023/08/22 04:54:17;;;;;;;12.10;7.50;;;;;;;19.31;96.75;98323.25;106908;1275;25382;-77
2023/08/22 04:56:45;;;;;;;13.40;6.60;;;;;;;19.26;96.43;98328.05;106944;1275;23584;-80
2023/08/22 04:59:13;;;;;;;11.40;6.70;;;;;;;19.21;96.49;98333.64;107187;1275;23820;-78
2023/08/22 05:01:41;;;;;;;9.70;6.30;;;;;;;19.23;96.53;98334.80;106700;1275;22522;-79
2023/08/22 05:04:09;;;;;;;11.00;6.20;;;;;;;19.24;96.61;98339.27;107023;1275;24252;-80
2023/08/22 05:06:38;;;;;;;9.80;5.90;;;;;;;19.44;98.65;98327.70;107066;1275;22549;-80
2023/08/22 05:09:06;;;;;;;9.80;5.80;;;;;;;19.71;98.13;98330.73;106988;1275;22524;-79
2023/08/22 05:11:36;;;;;;;7.90;5.30;;;;;;;19.89;97.09;98327.56;107049;1275;22475;-80
2023/08/22 05:14:04;;;;;;;9.70;5.90;;;;;;;19.90;96.30;98326.10;106699;1275;22633;-79
2023/08/22 05:16:32;;;;;;;12.20;6.30;;;;;;;19.88;96.12;98330.04;106981;1275;23899;-80
2023/08/22 05:19:01;;;;;;;8.50;6.10;;;;;;;19.90;96.34;98329.87;107337;1275;22613;-77
2023/08/22 05:21:30;;;;;;;18.30;5.60;;;;;;;20.02;96.44;98328.84;107274;1275;24369;-78
2023/08/22 05:23:58;;;;;;;10.70;6.10;;;;;;;20.07;95.89;98331.77;106635;1275;22520;-80
2023/08/22 05:26:26;;;;;;;9.60;6.30;;;;;;;20.04;95.82;98330.77;106996;1275;23181;-81
2023/08/22 05:28:54;;;;;;;10.30;6.50;;;;;;;20.00;95.86;98330.91;107095;1275;24151;-82
2023/08/22 05:31:23;;;;;;;11.90;6.60;;;;;;;20.03;96.29;98332.30;107375;1275;24056;-79
2023/08/22 05:33:52;;;;;;;11.50;6.30;;;;;;;20.07;96.11;98334.36;107341;1275;22573;-84
2023/08/22 05:36:20;;;;;;;12.90;6.00;;;;;;;20.11;96.29;98335.02;107381;1275;23925;-84
2023/08/22 05:38:48;;;;;;;9.60;6.50;;;;;;;20.18;96.38;98328.02;107519;1275;22648;-79
2023/08/22 05:41:16;;;;;;;13.40;5.50;;;;;;;20.30;96.41;98330.95;107369;1275;25224;-81
2023/08/22 05:43:44;;;;;;;9.30;5.50;;;;;;;20.43;96.60;98329.73;107489;1275;24354;-78
2023/08/22 05:46:14;;;;;;;8.50;5.90;;;;;;;20.54;96.41;98328.06;107022;1275;22648;-78
2023/08/22 05:48:42;;;;;;;11.90;5.90;;;;;;;20.68;96.50;98328.02;106728;1275;25925;-78
2023/08/22 05:51:10;;;;;;;9.90;6.20;;;;;;;20.78;95.91;98328.80;107033;1275;24191;-78
2023/08/22 05:53:39;;;;;;;11.20;6.10;;;;;;;20.85;95.60;98332.89;107086;1275;22535;-79
2023/08/22 05:56:07;;;;;;;11.30;6.20;;;;;;;20.96;95.52;98336.17;107237;1275;22637;-79
2023/08/22 05:58:35;;;;;;;11.20;7.20;;;;;;;21.05;95.07;98336.63;107192;1275;23178;-78
2023/08/22 06:01:10;;;;;;;16.30;6.20;;;;;;;21.19;94.95;98334.96;106890;1275;23011;-78
2023/08/22 06:03:39;;;;;;;10.70;4.20;;;;;;;21.33;94.68;98332.02;107105;1275;23277;-78
2023/08/22 06:06:08;;;;;;;8.10;5.00;;;;;;;21.48;94.41;98327.85;107246;1275;22566;-78
2023/08/22 06:08:36;;;;;;;9.30;4.80;;;;;;;21.62;94.15;98330.17;107013;1275;22529;-79
2023/08/22 06:11:04;;;;;;;17.90;5.50;;;;;;;21.77;93.94;98323.89;106875;1275;22572;-78
2023/08/22 06:13:33;;;;;;;6.20;4.90;;;;;;;21.92;93.48;98326.36;106746;1275;22625;-78
2023/08/22 06:16:01;;;;;;;8.00;4.70;;;;;;;22.06;93.19;98324.19;106898;1275;26638;-79
2023/08/22 06:18:30;;;;;;;9.40;5.30;;;;;;;22.20;92.38;98323.21;107011;1275;22773;-79
2023/08/22 06:20:59;;;;;;;6.50;4.90;;;;;;;22.34;92.09;98323.93;107279;1275;22719;-79
2023/08/22 06:23:27;;;;;;;9.70;5.80;;;;;;;22.45;91.76;98324.75;107348;1275;24189;-78
2023/08/22 06:25:56;;;;;;;10.60;5.60;;;;;;;22.55;91.35;98328.20;107262;1275;22520;-78
2023/08/22 06:28:24;;;;;;;8.80;6.20;;;;;;;22.66;90.83;98321.24;106758;1275;22544;-78
2023/08/22 06:30:52;;;;;;;7.60;5.40;;;;;;;22.75;90.45;98323.42;107279;1275;22531;-78
2023/08/22 06:33:21;;;;;;;10.00;5.70;;;;;;;22.82;89.11;98320.48;106898;1275;22662;-78
2023/08/22 06:35:49;;;;;;;10.10;5.40;;;;;;;22.90;89.15;98324.52;106640;1275;22551;-79
2023/08/22 06:38:17;;;;;;;11.00;5.50;;;;;;;22.99;88.85;98323.25;106841;1275;22552;-79
2023/08/22 06:40:45;;;;;;;11.70;5.60;;;;;;;23.09;87.97;98322.45;106925;1275;25466;-78
2023/08/22 06:43:14;;;;;;;9.90;5.20;;;;;;;23.20;87.13;98322.76;107229;1275;25100;-80
2023/08/22 06:45:45;;;;;;;10.40;5.40;;;;;;;23.26;86.21;98318.77;107223;1275;25448;-80
2023/08/22 06:48:13;;;;;;;9.90;5.30;;;;;;;23.26;85.69;98320.89;107260;1275;22561;-80
2023/08/22 06:50:57;;;;;;;;;;;;;;;23.28;85.99;98317.99;107160;1275;24008;-80
2023/08/22 06:53:25;;;;;;;8.10;4.90;;;;;;;23.37;86.13;98321.18;107241;1275;24196;-81
2023/08/22 06:55:54;;;;;;;8.80;5.80;;;;;;;23.46;85.64;98321.77;107157;1275;22754;-79
2023/08/22 06:58:22;;;;;;;8.20;5.40;;;;;;;23.53;85.43;98320.52;107350;1275;22521;-79
2023/08/22 07:00:50;;;;;;;7.20;5.20;;;;;;;23.60;84.94;98319.80;107405;1275;22564;-79
2023/08/22 07:03:18;;;;;;;9.10;5.20;;;;;;;23.66;84.30;98326.23;107630;1275;22581;-79
2023/08/22 07:05:52;;;;;;;12.50;5.60;;;;;;;23.73;84.05;98329.83;107322;1275;24239;-79
2023/08/22 07:08:21;;;;;;;11.50;5.10;;;;;;;23.83;84.10;98322.30;107282;1275;25413;-79
2023/08/22 07:10:49;;;;;;;13.70;5.10;;;;;;;23.95;83.20;98328.02;107211;1275;22792;-79
2023/08/22 07:13:18;;;;;;;9.80;5.00;;;;;;;24.01;82.62;98329.02;107360;1264;25518;-79
2023/08/22 07:15:49;;;;;;;8.70;5.00;;;;;;;24.01;81.98;98331.86;107332;1275;22525;-78
2023/08/22 07:18:18;;;;;;;9.70;4.60;;;;;;;23.97;81.10;98334.02;107236;1275;22547;-79
2023/08/22 07:20:46;;;;;;;11.20;5.60;;;;;;;24.00;81.63;98340.65;107197;1275;24752;-79
2023/08/22 07:23:14;;;;;;;11.20;5.30;;;;;;;24.06;81.19;98341.98;107235;1275;22576;-79
2023/08/22 07:25:47;;;;;;;9.00;4.60;;;;;;;24.16;81.16;98342.63;107119;1275;25423;-79
2023/08/22 07:28:15;;;;;;;7.00;5.60;;;;;;;24.32;81.03;98341.21;107185;1275;22637;-79
2023/08/22 07:30:47;;;;;;;10.20;5.70;;;;;;;24.48;80.62;98338.48;107203;1275;24347;-80
2023/08/22 07:33:15;;;;;;;6.60;5.30;;;;;;;24.64;80.28;98336.95;107155;1275;25390;-80
2023/08/22 07:35:44;;;;;;;9.00;5.60;;;;;;;24.76;79.80;98337.58;107287;1275;22655;-79
2023/08/22 07:38:12;;;;;;;8.10;5.30;;;;;;;24.83;79.48;98334.95;107323;1275;24253;-81
2023/08/22 07:40:41;;;;;;;8.00;5.30;;;;;;;24.82;78.10;98335.89;107278;1275;24061;-78
2023/08/22 07:43:09;;;;;;;9.10;5.10;;;;;;;24.74;77.97;98338.20;107279;1275;22577;-78
2023/08/22 07:45:37;;;;;;;8.50;4.80;;;;;;;24.79;78.24;98338.33;106874;1275;24100;-80
2023/08/22 07:48:05;;;;;;;8.30;5.80;;;;;;;24.81;78.11;98337.55;107350;1275;22581;-80
2023/08/22 07:50:34;;;;;;;10.40;6.50;;;;;;;24.90;78.19;98336.75;107254;1275;24269;-79
2023/08/22 07:53:04;;;;;;;8.70;5.60;;;;;;;25.01;77.30;98333.97;107298;1275;22814;-80
2023/08/22 07:55:32;;;;;;;7.70;5.50;;;;;;;25.13;77.11;98331.63;107301;1275;25272;-83
2023/08/22 07:58:00;;;;;;;8.20;5.10;;;;;;;25.24;76.97;98334.15;107271;1275;24222;-82
2023/08/22 08:00:28;;;;;;;11.00;5.80;;;;;;;25.41;76.89;98336.91;107328;1275;23555;-79
2023/08/22 08:02:56;;;;;;;9.90;5.60;;;;;;;25.46;75.51;98338.75;107271;1275;22629;-80
2023/08/22 08:05:26;;;;;;;10.70;6.00;;;;;;;25.42;74.10;98343.85;107320;1275;24216;-80
2023/08/22 08:07:54;;;;;;;9.20;5.50;;;;;;;25.45;74.75;98338.66;107291;1275;25394;-82
2023/08/22 08:10:22;;;;;;;10.80;6.30;;;;;;;25.57;74.59;98337.85;107339;1275;22543;-81
2023/08/22 08:12:50;;;;;;;9.70;6.10;;;;;;;25.70;74.16;98334.83;107317;1275;25282;-81
2023/08/22 08:15:18;;;;;;;8.60;6.40;;;;;;;25.83;73.99;98333.79;107320;1275;22560;-79
2023/08/22 08:17:46;;;;;;;7.80;6.10;;;;;;;25.95;73.35;98329.27;107294;1275;22610;-82
2023/08/22 08:20:14;;;;;;;8.20;6.20;;;;;;;26.05;72.46;98327.14;107132;1275;25352;-82
2023/08/22 08:22:42;;;;;;;8.30;6.10;;;;;;;26.11;72.32;98324.16;107328;1275;22654;-81
2023/08/22 08:25:12;;;;;;;9.80;6.60;;;;;;;26.23;72.61;98322.75;107296;1275;22637;-81
2023/08/22 08:27:40;;;;;;;9.90;6.50;;;;;;;26.30;72.20;98322.92;107264;1275;22874;-79
2023/08/22 08:30:10;;;;;;;7.30;6.10;;;;;;;26.37;71.97;98323.17;107203;1275;22617;-79
2023/08/22 08:32:38;;;;;;;9.90;7.10;;;;;;;26.44;71.87;98320.72;107236;1275;22556;-79
2023/08/22 08:35:07;;;;;;;10.90;9.50;;;;;;;26.55;72.09;98317.67;107165;1275;22514;-80
2023/08/22 08:37:35;;;;;;;9.60;7.00;;;;;;;26.65;72.03;98321.15;107173;1275;22525;-80
2023/08/22 08:40:06;;;;;;;10.00;6.60;;;;;;;26.73;71.91;98324.92;107176;1275;22569;-79
2023/08/22 08:42:37;;;;;;;12.20;9.10;;;;;;;26.77;70.35;98327.70;107168;1275;22639;-79
2023/08/22 08:45:06;;;;;;;8.90;7.30;;;;;;;26.77;70.43;98325.17;107272;1275;22639;-79
2023/08/22 08:47:36;;;;;;;9.80;7.80;;;;;;;26.81;70.96;98326.43;107121;1275;22527;-79
2023/08/22 08:50:06;;;;;;;8.00;6.70;;;;;;;26.94;71.24;98324.82;107855;1275;22757;-80
2023/08/22 08:52:35;;;;;;;12.60;8.70;;;;;;;27.08;71.26;98326.77;108499;1275;25577;-80
2023/08/22 08:55:07;;;;;;;12.90;7.30;;;;;;;27.21;71.08;98323.45;108731;1275;23411;-79
2023/08/22 08:57:35;;;;;;;8.40;7.10;;;;;;;27.32;70.26;98319.23;108064;1275;22504;-79
2023/08/22 09:00:03;;;;;;;11.30;7.80;;;;;;;27.40;70.25;98314.63;107282;1259;24269;-80
2023/08/22 09:02:31;;;;;;;9.80;6.20;;;;;;;27.54;70.39;98309.34;107190;1275;22520;-79
2023/08/22 09:05:00;;;;;;;7.90;6.30;;;;;;;27.68;70.14;98307.31;107248;1275;24382;-79
2023/08/22 09:07:28;;;;;;;7.90;5.70;;;;;;;27.79;68.24;98304.66;107224;1275;24232;-80
2023/08/22 09:09:58;;;;;;;7.60;5.20;;;;;;;27.75;66.60;98301.81;107121;1275;22649;-79
2023/08/22 09:12:34;;;;;;;7.80;4.90;;;;;;;27.74;66.07;98302.84;107189;1275;22523;-79
2023/08/22 09:15:06;;;;;;;9.90;5.60;;;;;;;27.78;65.41;98298.89;107185;1275;24221;-79
2023/08/22 09:17:34;;;;;;;9.60;6.60;;;;;;;27.87;66.36;98299.88;107242;1275;25288;-80
2023/08/22 09:20:10;;;;;;;11.10;6.20;;;;;;;28.01;66.39;98297.10;107229;1275;24246;-80
2023/08/22 09:22:39;;;;;;;8.00;5.50;;;;;;;28.20;66.39;98291.36;107013;1275;22586;-80
2023/08/22 09:25:07;;;;;;;9.20;5.90;;;;;;;28.41;66.34;98290.89;107202;1275;22605;-80
2023/08/22 09:27:37;;;;;;;7.80;6.20;;;;;;;28.57;65.27;98292.59;107199;1275;23287;-80
2023/08/22 09:30:06;;;;;;;10.10;6.30;;;;;;;28.69;65.10;98293.50;107143;1275;22595;-79
2023/08/22 09:32:34;;;;;;;8.00;6.30;;;;;;;28.79;65.15;98291.73;107216;1275;24245;-81
2023/08/22 09:35:02;;;;;;;10.00;6.20;;;;;;;28.88;64.93;98293.32;107229;1275;22531;-78
2023/08/22 09:37:36;;;;;;;8.00;5.30;;;;;;;29.01;65.01;98296.37;107279;1275;25306;-78
2023/08/22 09:40:09;;;;;;;7.80;6.00;;;;;;;29.13;64.40;98293.33;106913;1275;25406;-78
2023/08/22 09:42:39;;;;;;;6.90;5.70;;;;;;;29.26;63.50;98291.67;107171;1275;23032;-78
2023/08/22 09:45:09;;;;;;;10.60;5.60;;;;;;;29.35;62.12;98290.68;109809;1251;133426;-80
2023/08/22 09:47:42;;;;;;;7.80;5.50;;;;;;;29.39;60.99;98285.72;107000;1278;23017;-79
2023/08/22 09:50:15;;;;;;;7.80;5.40;;;;;;;29.42;61.56;98288.06;107138;1278;25395;-79
2023/08/22 09:52:43;;;;;;;8.40;6.00;;;;;;;29.46;61.85;98287.14;106946;1267;24332;-79
2023/08/22 09:55:12;;;;;;;7.20;5.50;;;;;;;29.54;61.75;98283.80;106600;1278;22534;-77
2023/08/22 09:57:41;;;;;;;7.20;5.30;;;;;;;29.60;60.49;98281.73;106652;1278;24282;-77
2023/08/22 10:00:10;;;;;;;6.60;4.70;;;;;;;29.66;60.50;98277.31;107015;1278;24037;-77
2023/08/22 10:02:43;;;;;;;7.60;5.10;;;;;;;29.74;60.12;98271.57;106652;1278;22606;-77
2023/08/22 10:05:12;;;;;;;8.00;5.50;;;;;;;29.82;59.15;98273.91;106489;1278;25339;-77
2023/08/22 10:07:40;;;;;;;9.50;5.20;;;;;;;29.94;58.97;98268.11;106518;1278;22580;-77
2023/08/22 10:10:09;;;;;;;11.40;5.10;;;;;;;30.00;58.39;98267.64;106904;1278;23920;-77
2023/08/22 10:12:39;;;;;;;7.70;5.30;;;;;;;30.03;57.21;98266.39;106622;1278;22747;-78
2023/08/22 10:15:10;;;;;;;6.70;5.00;;;;;;;30.00;56.27;98263.26;106970;1278;22518;-78
2023/08/22 10:17:39;;;;;;;9.70;4.90;;;;;;;30.02;56.87;98263.24;106999;1255;24421;-77
2023/08/22 10:20:12;;;;;;;9.70;6.40;;;;;;;30.04;55.96;98258.27;107000;1270;22539;-77
2023/08/22 10:22:40;;;;;;;8.30;5.30;;;;;;;30.01;55.40;98257.21;106498;1278;23418;-78
2023/08/22 10:25:08;;;;;;;9.10;4.90;;;;;;;30.02;55.06;98252.37;106848;1278;24077;-79
2023/08/22 10:27:46;;;;;;;7.60;4.80;;;;;;;29.90;52.79;98251.43;106981;1272;22688;-79
2023/08/22 10:30:15;;;;;;;8.60;5.30;;;;;;;29.75;53.96;98246.88;107032;1270;25552;-77
2023/08/22 10:34:24;;;;;;;8.40;5.10;;;;;;;29.99;55.12;98244.77;106651;1273;25367;-78
2023/08/22 10:37:54;;;;;;;8.60;4.80;;;;;;;30.38;54.30;98237.91;106449;1271;25385;-78
2023/08/22 10:40:30;;;;;;;13.80;5.30;;;;;;;30.47;54.26;98238.39;106594;1271;23385;-79
2023/08/22 10:43:04;;;;;;;7.60;5.10;;;;;;;30.61;54.32;98245.85;106178;1286;22607;-78
2023/08/22 10:45:48;;;;;;;8.80;4.50;;;;;;;30.82;53.99;98245.66;106000;1271;22561;-79
2023/08/22 10:48:18;;;;;;;6.30;4.60;;;;;;;30.89;52.99;98249.02;106458;1286;22645;-78
2023/08/22 10:50:49;;;;;;;10.80;5.00;;;;;;;30.91;52.67;98248.27;106575;1271;22659;-78
2023/08/22 10:53:23;;;;;;;7.20;4.80;;;;;;;30.98;52.53;98248.05;106665;1280;22665;-79
2023/08/22 10:55:52;;;;;;;12.70;4.90;;;;;;;31.08;52.43;98245.94;106897;1279;22533;-78
2023/08/22 10:58:41;;;;;;;9.30;4.80;;;;;;;31.23;51.88;98242.14;106920;1279;24124;-79
2023/08/22 11:01:14;;;;;;;8.70;4.50;;;;;;;31.32;51.59;98239.02;106876;1265;25379;-79
2023/08/22 11:03:43;;;;;;;6.70;3.80;;;;;;;31.35;50.75;98235.95;106841;1280;22570;-79
2023/08/22 11:06:13;;;;;;;8.10;4.70;;;;;;;31.40;50.30;98230.77;106844;1265;22594;-78
2023/08/22 11:08:43;;;;;;;16.10;4.80;;;;;;;31.50;49.49;98231.73;106843;1268;25572;-78
2023/08/22 11:11:13;;;;;;;7.90;4.40;;;;;;;31.59;48.37;98229.40;106877;1265;22636;-78
2023/08/22 11:13:42;;;;;;;8.10;4.30;;;;;;;31.63;48.36;98224.27;106799;1278;25333;-78
2023/08/22 11:16:13;;;;;;;9.90;4.20;;;;;;;31.63;48.25;98223.09;106880;1279;22613;-79
2023/08/22 11:18:42;;;;;;;7.70;4.00;;;;;;;31.66;47.52;98221.27;106964;1272;25363;-79
2023/08/22 11:21:10;;;;;;;6.50;3.80;;;;;;;31.60;47.51;98216.25;106840;1279;25484;-78
2023/08/22 11:23:40;;;;;;;7.00;4.10;;;;;;;31.62;47.06;98213.00;106863;1279;22541;-79
2023/08/22 11:26:08;;;;;;;7.40;4.20;;;;;;;31.77;46.94;98210.92;106846;1268;22716;-78
2023/08/22 11:28:37;;;;;;;8.50;4.10;;;;;;;31.91;46.82;98212.67;106785;1263;25439;-79
2023/08/22 11:31:05;;;;;;;10.40;3.90;;;;;;;32.11;46.74;98213.25;106774;1280;22527;-78
2023/08/22 11:33:53;;;;;;;7.50;4.00;;;;;;;32.21;44.96;98209.17;106720;1266;23113;-78